Time;durP1;ratioP1;P1;durP2;ratioP2;P2;SDS_P1;SDS_P2;PMS_P1;PMS_P2;Temp;Humidity;BMP_temperature;BMP_pressure;BME280_temperature;BME280_humidity;BME280_pressure;Samples;Min_cycle;Max_cycle;Signal;HPM_P1;HPM_P2
2021/04/19 00:02:23;;;;;;;16.85;13.20;;;;;;;11.62;68.36;99671.81;4193616;34;36281;-92
2021/04/19 00:05:02;;;;;;;18.73;13.95;;;;;;;11.63;68.24;99670.75;4191732;34;34692;-96
2021/04/19 00:07:38;;;;;;;17.58;13.07;;;;;;;11.54;68.71;99670.09;4196754;34;32923;-96
2021/04/19 00:10:16;;;;;;;17.05;14.35;;;;;;;11.20;70.00;99668.13;4204800;34;35559;-89
2021/04/19 00:12:54;;;;;;;19.48;14.00;;;;;;;11.26;69.92;99660.06;4203844;34;35118;-86
2021/04/19 00:15:27;;;;;;;17.80;13.98;;;;;;;11.49;69.28;99657.13;4195742;34;33558;-85
2021/04/19 00:18:00;;;;;;;18.87;15.25;;;;;;;11.28;70.02;99659.84;4197851;34;33824;-85
2021/04/19 00:20:33;;;;;;;17.58;14.70;;;;;;;11.29;69.74;99658.84;4198026;34;33919;-85
2021/04/19 00:23:06;;;;;;;22.17;16.48;;;;;;;11.12;70.44;99655.53;4229375;29;35384;-90
2021/04/19 00:25:50;;;;;;;20.15;15.95;;;;;;;11.03;71.00;99646.72;4207413;34;36359;-85
2021/04/19 00:28:26;;;;;;;19.23;15.63;;;;;;;11.12;70.60;99648.28;4198330;34;33599;-96
2021/04/19 00:31:00;;;;;;;22.27;16.77;;;;;;;11.36;69.90;99656.19;4211259;34;35979;-90
2021/04/19 00:33:36;;;;;;;22.05;17.15;;;;;;;11.39;69.80;99651.22;4205669;34;32812;-85
2021/04/19 00:36:10;;;;;;;23.60;17.02;;;;;;;11.39;69.69;99653.94;4210717;34;34408;-96
2021/04/19 00:38:43;;;;;;;22.55;16.90;;;;;;;11.41;69.69;99654.56;4209979;34;35034;-85
2021/04/19 00:41:20;;;;;;;22.42;18.23;;;;;;;11.41;69.54;99654.56;4519765;28;33372;-88
2021/04/19 00:44:20;;;;;;;21.62;17.55;;;;;;;11.22;70.11;99642.53;4422887;28;21226;-88
2021/04/19 00:47:06;;;;;;;22.48;18.62;;;;;;;11.31;69.78;99648.66;4198972;34;20166;-84
2021/04/19 00:49:39;;;;;;;23.25;17.98;;;;;;;11.06;70.41;99646.34;4213046;33;34360;-89
2021/04/19 00:52:13;;;;;;;23.30;18.05;;;;;;;11.04;70.58;99645.69;4202319;34;33815;-96
2021/04/19 00:54:45;;;;;;;24.05;17.73;;;;;;;11.20;70.08;99641.06;4187387;34;34406;-84
2021/04/19 00:57:27;;;;;;;23.27;18.12;;;;;;;11.37;69.45;99642.44;4201038;34;33673;-94
2021/04/19 01:00:20;;;;;;;21.75;17.48;;;;;;;11.21;69.91;99635.47;4217798;34;34588;-96
2021/04/19 01:03:02;;;;;;;27.92;19.08;;;;;;;11.19;69.99;99644.78;4235325;28;32851;-84
2021/04/19 01:05:37;;;;;;;24.20;18.02;;;;;;;11.26;69.78;99640.28;4202295;33;33749;-84
2021/04/19 01:08:10;;;;;;;23.77;18.52;;;;;;;11.03;70.75;99640.47;4201451;33;33731;-84
2021/04/19 01:10:46;;;;;;;24.87;18.25;;;;;;;11.10;70.30;99641.38;4209359;33;35066;-96
2021/04/19 01:13:27;;;;;;;23.35;17.95;;;;;;;11.23;69.95;99636.09;4193717;33;34067;-96
2021/04/19 01:16:08;;;;;;;26.70;18.87;;;;;;;11.31;69.43;99643.22;4198128;33;32841;-84
2021/04/19 01:18:55;;;;;;;23.02;17.98;;;;;;;11.19;69.81;99637.50;4210777;33;32678;-96
2021/04/19 01:21:34;;;;;;;24.37;18.83;;;;;;;11.25;69.79;99638.59;4198255;33;35667;-85
2021/04/19 01:24:08;;;;;;;24.67;18.62;;;;;;;11.25;69.56;99635.91;4210357;33;33351;-84
2021/04/19 01:26:41;;;;;;;24.35;17.98;;;;;;;11.06;69.90;99630.13;4208061;33;34671;-96
2021/04/19 01:29:20;;;;;;;22.10;17.12;;;;;;;11.03;69.95;99630.50;4210209;33;35000;-96
2021/04/19 01:32:08;;;;;;;25.05;18.00;;;;;;;11.05;70.05;99628.44;4201910;34;35159;-92
2021/04/19 01:35:00;;;;;;;24.15;17.85;;;;;;;11.18;69.76;99632.28;4216115;34;35132;-89
2021/04/19 01:37:46;;;;;;;19.05;16.23;;;;;;;11.28;69.53;99635.50;4208822;34;33939;-96
2021/04/19 01:40:28;;;;;;;21.90;17.15;;;;;;;11.18;69.99;99635.00;4198428;33;35272;-84
2021/04/19 01:43:02;;;;;;;24.37;19.15;;;;;;;11.15;69.79;99630.81;4222801;33;34170;-85
2021/04/19 01:45:39;;;;;;;22.52;16.85;;;;;;;11.17;69.88;99625.19;4233573;33;33351;-96
2021/04/19 01:48:15;;;;;;;22.85;18.20;;;;;;;11.40;69.33;99631.22;4203468;34;32502;-96
2021/04/19 01:50:52;;;;;;;23.98;17.55;;;;;;;11.12;70.08;99621.22;4196557;34;32957;-85
2021/04/19 01:53:26;;;;;;;22.98;18.17;;;;;;;11.31;69.54;99638.66;4197849;34;33620;-85
2021/04/19 01:55:58;;;;;;;20.45;17.37;;;;;;;11.28;69.60;99624.69;4196355;34;36485;-85
2021/04/19 01:58:33;;;;;;;24.02;19.35;;;;;;;11.36;69.31;99635.37;4207368;34;33578;-85
2021/04/19 02:01:06;;;;;;;20.60;17.70;;;;;;;11.26;69.29;99627.59;4217857;34;34425;-85
2021/04/19 02:03:48;;;;;;;23.80;17.48;;;;;;;11.45;68.88;99628.78;4179372;34;35815;-96
2021/04/19 02:06:31;;;;;;;22.50;17.17;;;;;;;11.38;69.48;99636.00;4192052;34;33090;-96
2021/04/19 02:09:33;;;;;;;22.42;18.23;;;;;;;11.13;70.20;99630.16;4180662;34;34355;-96
2021/04/19 02:12:11;;;;;;;22.67;18.05;;;;;;;11.27;69.76;99628.41;4200432;34;33927;-96
2021/04/19 02:15:05;;;;;;;25.73;18.50;;;;;;;11.39;69.37;99629.56;4183786;34;34217;-96
2021/04/19 02:17:43;;;;;;;23.77;18.87;;;;;;;11.21;69.79;99630.06;4196354;34;34011;-85
2021/04/19 02:20:28;;;;;;;26.08;19.00;;;;;;;10.93;70.61;99620.00;4220133;34;33715;-96
2021/04/19 02:23:16;;;;;;;27.40;19.15;;;;;;;11.11;70.25;99624.97;4186224;34;34788;-89
2021/04/19 02:25:59;;;;;;;26.48;19.83;;;;;;;11.20;70.00;99628.37;4197199;34;34382;-96
2021/04/19 02:28:37;;;;;;;26.25;20.10;;;;;;;11.16;69.88;99623.53;4186074;34;32365;-96
2021/04/19 02:31:13;;;;;;;24.58;18.08;;;;;;;11.18;69.92;99624.16;4196714;34;34400;-85
2021/04/19 02:33:47;;;;;;;22.42;19.23;;;;;;;11.30;69.20;99625.31;4197060;34;33689;-96
2021/04/19 02:36:24;;;;;;;22.90;18.35;;;;;;;11.04;70.14;99618.63;4196693;34;35340;-96
2021/04/19 02:38:59;;;;;;;24.45;18.98;;;;;;;11.13;70.00;99624.75;4186931;34;34372;-84
2021/04/19 02:41:36;;;;;;;27.05;20.25;;;;;;;11.12;70.08;99629.34;4197520;34;33692;-96
2021/04/19 02:44:10;;;;;;;24.95;19.52;;;;;;;11.28;69.59;99628.22;4196792;34;34068;-84
2021/04/19 02:46:43;;;;;;;22.90;19.25;;;;;;;11.42;68.81;99623.78;4196288;34;34546;-85
2021/04/19 02:49:16;;;;;;;27.83;19.40;;;;;;;11.29;69.22;99615.53;4197847;34;34127;-85
2021/04/19 02:51:50;;;;;;;24.20;19.60;;;;;;;11.09;70.11;99618.06;4196876;34;34610;-85
2021/04/19 02:54:23;;;;;;;24.67;19.62;;;;;;;11.19;69.65;99615.03;4195052;34;34833;-96
2021/04/19 02:56:57;;;;;;;26.48;20.10;;;;;;;11.00;70.22;99619.22;4184783;34;32918;-96
2021/04/19 02:59:31;;;;;;;27.52;20.67;;;;;;;11.17;69.64;99611.66;4185520;34;34036;-85
2021/04/19 03:02:07;;;;;;;29.27;20.05;;;;;;;11.26;69.44;99611.34;4201749;34;33642;-96
2021/04/19 03:04:42;;;;;;;24.20;19.62;;;;;;;11.20;69.68;99612.13;4173419;34;33374;-85
2021/04/19 03:07:16;;;;;;;26.17;20.50;;;;;;;11.36;69.23;99616.44;4185025;34;33557;-85
2021/04/19 03:09:52;;;;;;;25.92;19.75;;;;;;;11.20;69.55;99611.31;4197030;34;33395;-91
2021/04/19 03:12:29;;;;;;;27.35;20.23;;;;;;;11.15;69.64;99611.87;4185000;34;35281;-96
2021/04/19 03:15:09;;;;;;;27.48;20.83;;;;;;;11.16;69.74;99610.03;4184327;34;36622;-84
2021/04/19 03:17:44;;;;;;;24.12;19.83;;;;;;;11.11;70.02;99608.72;4198847;34;34558;-85
2021/04/19 03:20:24;;;;;;;25.60;18.60;;;;;;;11.00;70.17;99608.41;4211502;34;33515;-96
2021/04/19 03:23:13;;;;;;;24.08;18.50;;;;;;;11.06;70.06;99608.47;4191728;34;36802;-96
2021/04/19 03:25:47;;;;;;;28.02;20.12;;;;;;;11.16;69.62;99612.72;4186982;34;32889;-84
2021/04/19 03:28:20;;;;;;;26.52;20.88;;;;;;;10.89;70.20;99604.34;4197678;34;33523;-85
2021/04/19 03:30:53;;;;;;;30.33;20.85;;;;;;;10.60;71.34;99609.66;4197128;34;34286;-84
2021/04/19 03:33:26;;;;;;;24.65;17.60;;;;;;;10.71;71.14;99611.03;4206659;34;33745;-84
2021/04/19 03:35:59;;;;;;;24.05;18.67;;;;;;;10.90;70.29;99614.97;4204486;34;34725;-84
2021/04/19 03:38:33;;;;;;;29.55;20.67;;;;;;;10.57;71.53;99606.53;4182829;34;33633;-84
2021/04/19 03:41:07;;;;;;;26.02;18.62;;;;;;;10.05;73.22;99609.16;4182738;34;34202;-96
2021/04/19 03:43:42;;;;;;;27.65;20.23;;;;;;;10.73;71.13;99610.84;4193528;34;33430;-95
2021/04/19 03:46:15;;;;;;;26.67;20.62;;;;;;;10.50;71.87;99609.12;4183158;34;33916;-96
2021/04/19 03:48:53;;;;;;;25.60;18.50;;;;;;;10.70;71.21;99611.22;4182417;34;33302;-96
2021/04/19 03:51:26;;;;;;;28.45;20.25;;;;;;;10.83;70.66;99613.25;4181217;34;33750;-84
2021/04/19 03:54:00;;;;;;;32.15;20.77;;;;;;;10.62;71.35;99612.19;4192187;34;33565;-96
2021/04/19 03:56:34;;;;;;;31.67;21.52;;;;;;;10.52;71.81;99617.88;4191994;34;34936;-96
2021/04/19 03:59:14;;;;;;;30.98;22.87;;;;;;;10.59;71.51;99612.56;4192532;34;33691;-96
2021/04/19 04:01:48;;;;;;;31.15;22.48;;;;;;;10.81;71.03;99609.88;4188268;34;33066;-96
2021/04/19 04:04:22;;;;;;;28.73;21.30;;;;;;;10.99;70.20;99612.13;4196654;34;34954;-96
2021/04/19 04:06:58;;;;;;;28.27;21.15;;;;;;;10.97;70.33;99615.03;4198360;34;36325;-96
2021/04/19 04:09:32;;;;;;;31.10;22.75;;;;;;;10.82;70.83;99615.09;4185794;34;36610;-84
2021/04/19 04:12:05;;;;;;;28.25;20.73;;;;;;;10.83;70.86;99621.34;4197196;34;33443;-84
2021/04/19 04:14:49;;;;;;;22.90;17.87;;;;;;;10.97;70.28;99620.44;4208964;34;34346;-96
2021/04/19 04:17:23;;;;;;;26.62;18.20;;;;;;;10.51;71.22;99618.94;4186128;34;34129;-84
2021/04/19 04:19:57;;;;;;;22.37;17.35;;;;;;;10.78;70.48;99625.47;4197962;34;33979;-84
2021/04/19 04:22:31;;;;;;;21.98;16.60;;;;;;;10.79;70.10;99620.87;4196456;34;34264;-84
2021/04/19 04:25:05;;;;;;;25.10;16.42;;;;;;;10.92;69.45;99620.19;4208479;34;33637;-84
2021/04/19 04:27:37;;;;;;;22.17;16.25;;;;;;;10.91;69.80;99621.22;4197661;34;34436;-84
2021/04/19 04:30:11;;;;;;;22.15;17.52;;;;;;;10.94;69.74;99627.09;4196386;34;34632;-96
2021/04/19 04:32:44;;;;;;;24.83;17.15;;;;;;;10.38;71.36;99621.47;4197096;34;33323;-85
2021/04/19 04:35:17;;;;;;;22.48;17.95;;;;;;;10.51;70.86;99618.06;4197650;34;34843;-95
2021/04/19 04:37:52;;;;;;;26.85;17.58;;;;;;;10.44;71.16;99626.09;4191102;34;33922;-84
2021/04/19 04:40:29;;;;;;;27.37;18.12;;;;;;;10.49;71.05;99626.38;4201442;34;33351;-96
2021/04/19 04:43:22;;;;;;;23.40;17.50;;;;;;;10.33;71.51;99630.13;4197994;34;33769;-84
2021/04/19 04:46:00;;;;;;;20.95;16.20;;;;;;;10.34;71.22;99625.56;4207803;34;34202;-85
2021/04/19 04:48:52;;;;;;;18.37;15.38;;;;;;;10.24;71.49;99625.84;4195917;34;34902;-96
2021/04/19 04:51:30;;;;;;;22.77;16.27;;;;;;;10.70;70.05;99625.59;4200229;34;33784;-96
2021/04/19 04:54:15;;;;;;;21.73;16.05;;;;;;;10.63;70.27;99623.81;4196858;34;33422;-84
2021/04/19 04:56:52;;;;;;;24.23;16.73;;;;;;;10.45;71.01;99626.94;4196870;34;33335;-85
2021/04/19 04:59:27;;;;;;;19.85;14.98;;;;;;;10.74;70.06;99624.16;4206793;34;33444;-96
2021/04/19 05:02:01;;;;;;;20.95;15.82;;;;;;;10.71;70.13;99632.66;4195344;34;34698;-96
2021/04/19 05:04:35;;;;;;;20.50;16.23;;;;;;;10.58;70.13;99629.78;4202657;34;34337;-86
2021/04/19 05:07:08;;;;;;;24.77;16.77;;;;;;;10.80;69.40;99635.25;4193353;34;34325;-85
2021/04/19 05:09:44;;;;;;;21.83;17.08;;;;;;;10.74;69.83;99632.28;4193232;34;33600;-86
2021/04/19 05:12:17;;;;;;;19.20;15.77;;;;;;;10.85;69.54;99632.78;4192791;34;33789;-90
2021/04/19 05:14:59;;;;;;;21.73;16.60;;;;;;;10.95;69.25;99642.25;4193804;34;33718;-96
2021/04/19 05:17:33;;;;;;;21.35;15.27;;;;;;;10.89;69.31;99639.50;4183242;34;34875;-96
2021/04/19 05:20:10;;;;;;;18.62;14.75;;;;;;;10.76;69.65;99629.38;4184996;34;35128;-95
2021/04/19 05:22:44;;;;;;;14.82;13.23;;;;;;;10.88;69.03;99635.13;4182372;34;34157;-95
2021/04/19 05:25:17;;;;;;;19.87;14.98;;;;;;;10.67;69.21;99625.13;4192171;34;33953;-95
2021/04/19 05:27:52;;;;;;;18.58;14.60;;;;;;;11.03;68.39;99633.22;4181976;34;34259;-96
2021/04/19 05:30:26;;;;;;;18.40;13.52;;;;;;;11.03;68.59;99630.50;4189147;34;32861;-86
2021/04/19 05:32:59;;;;;;;18.48;13.52;;;;;;;11.45;67.07;99625.22;4204575;34;33624;-96
2021/04/19 05:35:34;;;;;;;17.70;14.82;;;;;;;11.09;67.98;99635.13;4182171;34;33581;-86
2021/04/19 05:38:07;;;;;;;19.02;13.90;;;;;;;11.42;67.42;99640.00;4202580;34;33493;-86
2021/04/19 05:40:47;;;;;;;22.10;14.38;;;;;;;11.39;67.57;99632.28;4195683;34;34549;-85
2021/04/19 05:43:19;;;;;;;17.70;14.98;;;;;;;11.44;67.23;99637.09;4205601;34;33606;-85
2021/04/19 05:45:52;;;;;;;16.92;13.93;;;;;;;11.49;67.00;99626.53;4204644;34;33090;-94
2021/04/19 05:48:28;;;;;;;19.52;14.60;;;;;;;11.41;66.63;99632.91;4193695;34;37091;-85
2021/04/19 05:51:02;;;;;;;17.45;13.68;;;;;;;11.41;67.39;99638.31;4194693;34;33442;-94
2021/04/19 05:53:38;;;;;;;18.42;14.93;;;;;;;11.71;66.22;99632.72;4182442;34;34275;-96
2021/04/19 05:56:22;;;;;;;14.18;12.30;;;;;;;11.71;66.41;99638.16;4184612;34;32635;-96
2021/04/19 05:59:18;;;;;;;16.45;13.10;;;;;;;11.73;66.18;99633.34;4175113;34;34274;-96
2021/04/19 06:01:52;;;;;;;21.08;15.55;;;;;;;11.65;66.58;99634.34;4173684;34;34323;-86
2021/04/19 06:04:50;;;;;;;17.12;13.82;;;;;;;11.56;66.98;99637.41;4169300;34;34049;-86
2021/04/19 06:07:39;;;;;;;16.37;13.88;;;;;;;11.90;66.29;99630.34;4182642;34;31965;-96
2021/04/19 06:10:25;;;;;;;17.65;13.20;;;;;;;12.01;65.83;99635.25;4178675;34;35091;-96
2021/04/19 06:13:01;;;;;;;15.90;12.77;;;;;;;11.74;66.43;99631.50;4181580;34;35034;-96
2021/04/19 06:15:35;;;;;;;17.52;13.25;;;;;;;11.60;66.21;99636.81;4183080;34;34072;-89
2021/04/19 06:18:09;;;;;;;16.23;13.82;;;;;;;11.74;66.04;99632.34;4179097;34;34034;-96
2021/04/19 06:20:43;;;;;;;18.37;14.00;;;;;;;11.84;66.09;99640.09;4169184;34;36416;-95
2021/04/19 06:23:16;;;;;;;16.60;14.38;;;;;;;11.86;65.96;99634.50;4172413;34;34449;-94
2021/04/19 06:25:50;;;;;;;19.77;13.73;;;;;;;11.46;66.71;99635.84;4196000;34;34531;-96
2021/04/19 06:28:24;;;;;;;19.27;14.55;;;;;;;11.52;66.56;99633.41;4179773;34;32951;-96
2021/04/19 06:30:58;;;;;;;22.35;15.77;;;;;;;11.66;66.80;99646.00;4177313;34;36894;-95
2021/04/19 06:33:33;;;;;;;20.30;13.80;;;;;;;11.74;66.72;99640.44;4191501;34;37583;-94
2021/04/19 06:36:07;;;;;;;14.07;11.93;;;;;;;11.78;66.67;99639.03;4172499;34;33731;-95
2021/04/19 06:38:39;;;;;;;16.10;13.88;;;;;;;11.76;65.95;99635.66;4188690;34;33359;-95
2021/04/19 06:41:13;;;;;;;13.68;11.70;;;;;;;11.97;65.73;99632.06;4178750;34;36022;-95
2021/04/19 06:43:46;;;;;;;17.52;13.30;;;;;;;11.95;66.70;99634.16;4177927;34;34633;-96
2021/04/19 06:46:19;;;;;;;20.12;11.45;;;;;;;11.89;66.11;99639.53;4190329;34;34602;-94
2021/04/19 06:48:54;;;;;;;14.77;11.38;;;;;;;12.20;65.55;99636.41;4189700;34;33595;-95
2021/04/19 06:51:31;;;;;;;13.60;11.10;;;;;;;12.21;65.58;99640.75;4190296;34;36566;-95
2021/04/19 06:54:05;;;;;;;22.17;13.48;;;;;;;11.94;65.91;99639.78;4166774;34;34403;-95
2021/04/19 06:56:41;;;;;;;12.88;10.35;;;;;;;12.16;65.25;99635.94;4178820;34;34639;-96
2021/04/19 06:59:39;;;;;;;12.93;10.18;;;;;;;11.93;65.49;99638.09;4400288;28;35097;31
2021/04/19 07:02:36;;;;;;;11.27;9.65;;;;;;;12.14;65.06;99643.44;4203279;34;33524;-85
2021/04/19 07:05:10;;;;;;;11.73;9.75;;;;;;;12.45;64.68;99634.00;4201414;34;33671;-85
2021/04/19 07:08:15;;;;;;;11.52;9.68;;;;;;;12.29;65.27;99634.34;4210846;33;33432;-84
2021/04/19 07:10:50;;;;;;;11.35;7.18;;;;;;;12.52;65.26;99634.84;4208901;34;33551;-85
2021/04/19 07:13:22;;;;;;;10.90;8.43;;;;;;;12.18;64.27;99633.91;4216411;33;34021;-85
2021/04/19 07:15:55;;;;;;;11.48;8.23;;;;;;;12.03;64.76;99635.03;4214808;33;34477;-85
2021/04/19 07:18:28;;;;;;;12.25;9.55;;;;;;;12.32;64.41;99623.09;4214617;33;33917;-85
2021/04/19 07:21:01;;;;;;;19.33;12.88;;;;;;;11.80;65.23;99628.00;4204733;33;34842;-85
2021/04/19 07:23:36;;;;;;;15.38;11.75;;;;;;;12.23;64.59;99627.00;4211527;34;34629;-85
2021/04/19 07:26:10;;;;;;;12.88;9.88;;;;;;;12.76;64.65;99621.81;4198239;34;33777;-85
2021/04/19 07:28:43;;;;;;;13.20;10.23;;;;;;;12.46;65.78;99622.13;4199136;34;33343;-85
2021/04/19 07:31:16;;;;;;;12.93;9.52;;;;;;;12.58;65.08;99622.38;4201605;33;334897;-85
2021/04/19 07:33:49;;;;;;;12.73;10.50;;;;;;;12.32;64.77;99632.06;4203267;34;33679;-85
2021/04/19 07:36:27;;;;;;;12.07;9.70;;;;;;;12.57;65.15;99625.28;4209417;34;33790;-85
2021/04/19 07:39:00;;;;;;;11.38;8.95;;;;;;;13.08;64.92;99622.06;4203407;34;34014;-86
2021/04/19 07:42:02;;;;;;;8.32;7.50;;;;;;;13.27;64.17;99612.28;4205112;34;34028;-86
2021/04/19 07:44:50;;;;;;;9.93;7.60;;;;;;;13.35;62.94;99612.13;4204559;34;33718;-86
2021/04/19 07:47:41;;;;;;;9.05;7.57;;;;;;;13.22;62.04;99617.50;4188870;34;33772;-86
2021/04/19 07:50:21;;;;;;;7.35;6.35;;;;;;;13.12;62.19;99611.66;4210463;34;35780;-85
2021/04/19 07:52:58;;;;;;;8.63;6.90;;;;;;;13.62;60.27;99608.53;4216626;34;32940;-86
2021/04/19 07:55:37;;;;;;;8.13;6.68;;;;;;;13.57;61.89;99614.59;4207533;34;34434;-85
2021/04/19 07:58:28;;;;;;;8.35;6.32;;;;;;;13.50;61.64;99611.91;4216830;34;33617;-85
2021/04/19 08:01:10;;;;;;;8.48;6.65;;;;;;;13.48;60.77;99616.69;4216372;34;33759;-95
2021/04/19 08:03:43;;;;;;;8.00;6.30;;;;;;;13.85;60.08;99611.63;4211626;34;33237;-95
2021/04/19 08:06:21;;;;;;;6.72;6.03;;;;;;;13.73;59.55;99607.91;4465026;28;32620;-87
2021/04/19 08:09:28;;;;;;;6.70;4.80;;;;;;;13.38;61.58;99600.84;4283821;28;32944;31
2021/04/19 08:12:26;;;;;;;8.63;5.40;;;;;;;13.84;60.44;99607.25;4275912;28;34259;31
2021/04/19 08:15:41;;;;;;;6.68;4.95;;;;;;;13.94;59.16;99604.09;4206939;28;50771;-92
2021/04/19 08:25:23;;;;;;;6.75;5.93;;;;;;;14.02;58.98;99603.03;4425702;28;35648;-87
2021/04/19 08:29:03;;;;;;;5.80;5.20;;;;;;;14.36;59.34;99601.03;4267374;28;33954;-87
2021/04/19 08:32:22;;;;;;;6.65;4.80;;;;;;;14.32;58.88;99599.78;3956578;34;34153;-91
2021/04/19 08:34:57;;;;;;;5.70;4.78;;;;;;;14.04;57.97;99603.63;4375049;28;31723;-87
2021/04/19 08:44:23;;;;;;;7.55;4.68;;;;;;;14.71;57.54;99598.78;4217226;33;34262;-89
2021/04/19 09:11:55;;;;;;;5.30;4.68;;;;;;;15.02;55.65;99599.03;4339681;28;36794;-87
2021/04/19 09:14:34;;;;;;;5.82;5.22;;;;;;;14.91;56.99;99604.13;4181461;34;34350;-88
2021/04/19 09:17:07;;;;;;;6.78;4.30;;;;;;;14.83;58.30;99598.94;4598273;28;34362;-86
2021/04/19 09:19:43;;;;;;;4.72;4.12;;;;;;;14.99;57.41;99606.56;4172282;34;30658;-86
2021/04/19 09:22:20;;;;;;;5.55;4.78;;;;;;;14.87;56.45;99602.88;4178267;34;33674;-86
2021/04/19 09:25:12;;;;;;;5.37;4.53;;;;;;;15.18;58.01;99602.03;4729724;28;34150;31
2021/04/19 09:27:52;;;;;;;6.45;4.80;;;;;;;15.35;57.38;99605.03;4174335;34;32303;-87
2021/04/19 09:30:28;;;;;;;7.22;5.75;;;;;;;15.09;56.04;99599.78;4194601;34;33620;-86
2021/04/19 09:33:05;;;;;;;12.15;5.90;;;;;;;15.39;56.89;99610.03;4194834;34;33666;-87
2021/04/19 09:35:42;;;;;;;6.85;5.30;;;;;;;15.41;56.30;99608.78;4464769;28;33741;-86
2021/04/19 09:41:47;;;;;;;6.50;5.43;;;;;;;15.23;56.16;99606.81;4253516;28;20136;-86
2021/04/19 09:44:27;;;;;;;5.28;4.78;;;;;;;15.18;57.34;99604.75;4199856;34;33317;-85
2021/04/19 09:47:00;;;;;;;5.97;5.00;;;;;;;14.51;58.00;99604.31;4185413;34;35198;-85
2021/04/19 09:49:34;;;;;;;7.53;5.18;;;;;;;14.36;58.59;99603.75;4202651;34;34629;-85
2021/04/19 09:52:09;;;;;;;6.62;5.03;;;;;;;14.75;57.96;99599.19;4193085;34;33135;-85
2021/04/19 09:54:42;;;;;;;6.40;5.18;;;;;;;14.68;57.53;99603.84;4185057;34;34714;-85
2021/04/19 09:57:15;;;;;;;6.18;5.37;;;;;;;14.56;58.10;99601.75;4195237;34;34503;-85
2021/04/19 09:59:51;;;;;;;6.93;5.20;;;;;;;15.28;56.91;99603.44;4207061;34;34116;-85
2021/04/19 10:02:23;;;;;;;9.57;4.75;;;;;;;15.44;57.38;99602.06;4208570;34;33237;-86
2021/04/19 10:04:56;;;;;;;5.15;3.97;;;;;;;15.41;56.65;99594.34;4209920;34;33481;-89
2021/04/19 10:07:33;;;;;;;6.12;4.60;;;;;;;14.42;56.53;99589.28;4204035;34;34690;-86
2021/04/19 10:10:12;;;;;;;6.05;4.95;;;;;;;14.84;56.95;99592.44;4176736;34;35533;-85
2021/04/19 10:12:48;;;;;;;8.07;5.05;;;;;;;15.63;55.64;99592.88;4208397;34;34022;-85
2021/04/19 10:15:26;;;;;;;4.95;4.47;;;;;;;15.79;55.36;99587.91;4175864;34;34874;-87
2021/04/19 10:18:10;;;;;;;5.28;4.78;;;;;;;15.93;55.87;99585.88;4187776;34;34619;-86
2021/04/19 10:20:42;;;;;;;5.75;5.05;;;;;;;16.31;52.75;99584.81;4197243;34;33473;-85
2021/04/19 10:23:15;;;;;;;6.50;4.35;;;;;;;16.35;53.49;99578.69;4172697;34;33306;-85
2021/04/19 10:25:51;;;;;;;6.03;4.70;;;;;;;16.05;53.79;99584.91;4159964;34;34226;-85
2021/04/19 10:28:36;;;;;;;4.35;3.87;;;;;;;15.96;55.04;99585.41;4195906;34;34679;-85
2021/04/19 10:31:10;;;;;;;5.32;4.43;;;;;;;16.01;52.91;99593.75;4173417;34;33331;-86
2021/04/19 10:33:44;;;;;;;6.53;5.70;;;;;;;15.31;54.68;99587.50;4194575;34;33127;-86
2021/04/19 10:36:19;;;;;;;7.10;5.87;;;;;;;15.08;54.75;99584.53;4182862;34;34639;-86
2021/04/19 10:38:57;;;;;;;6.87;5.28;;;;;;;15.23;56.79;99587.75;4192385;34;33566;-85
2021/04/19 10:41:34;;;;;;;6.28;4.70;;;;;;;15.13;54.67;99584.69;4165308;34;33475;-86
2021/04/19 10:44:10;;;;;;;6.70;4.93;;;;;;;15.01;56.38;99581.84;4175228;34;33132;-96
2021/04/19 10:47:05;;;;;;;9.95;6.05;;;;;;;14.20;57.58;99576.00;4174562;34;32329;-95
2021/04/19 10:49:42;;;;;;;6.75;5.82;;;;;;;14.00;58.37;99581.50;4162180;34;34572;-96
2021/04/19 10:52:55;;;;;;;6.32;4.97;;;;;;;14.16;59.40;99582.06;4191714;34;20131;-95
2021/04/19 10:55:45;;;;;;;7.50;5.07;;;;;;;13.67;59.13;99577.00;4202482;33;32614;-96
2021/04/19 10:58:19;;;;;;;10.85;5.93;;;;;;;12.67;62.02;99579.66;4183483;34;34510;-94
2021/04/19 11:01:20;;;;;;;8.20;6.90;;;;;;;13.31;61.48;99571.97;4156466;34;33286;-94
2021/04/19 11:03:53;;;;;;;7.15;6.15;;;;;;;13.48;62.13;99578.69;4171246;34;33808;-93
2021/04/19 11:06:30;;;;;;;6.93;6.03;;;;;;;13.28;62.43;99572.38;4160825;34;35932;-94
2021/04/19 11:09:16;;;;;;;7.80;5.78;;;;;;;13.42;61.85;99568.66;4175888;34;33682;-94
2021/04/19 11:11:51;;;;;;;7.35;6.10;;;;;;;13.52;61.91;99579.13;4171265;34;34376;-94
2021/04/19 11:14:34;;;;;;;7.25;6.53;;;;;;;13.90;60.85;99571.06;4170888;34;33800;-93
2021/04/19 11:17:09;;;;;;;8.27;5.32;;;;;;;14.05;59.25;99573.53;4173519;34;34711;-94
2021/04/19 11:19:46;;;;;;;6.53;5.50;;;;;;;13.24;59.09;99572.81;4176164;34;33922;-96
2021/04/19 11:22:26;;;;;;;9.32;6.97;;;;;;;13.34;59.87;99571.59;4180688;34;33754;-94
2021/04/19 11:25:37;;;;;;;7.12;5.37;;;;;;;13.69;60.35;99574.06;4170195;34;35101;-94
2021/04/19 11:28:29;;;;;;;6.35;5.07;;;;;;;13.73;60.10;99575.31;4174214;34;34563;-94
2021/04/19 11:31:19;;;;;;;7.00;5.72;;;;;;;13.80;60.60;99567.13;4176706;34;34255;-96
2021/04/19 11:34:07;;;;;;;16.42;12.85;;;;;;;12.86;60.54;99576.13;4168394;34;35272;-95
2021/04/19 11:36:42;;;;;;;13.20;9.75;;;;;;;12.92;59.32;99571.75;4193496;28;33817;-93
2021/04/19 11:39:20;;;;;;;12.05;9.35;;;;;;;13.13;60.61;99569.88;4198817;34;33585;-93
2021/04/19 11:41:52;;;;;;;11.48;9.40;;;;;;;13.38;60.44;99561.97;4206504;33;34993;-95
2021/04/19 11:44:48;;;;;;;8.05;7.20;;;;;;;13.83;60.93;99562.12;4190481;33;36723;-95
2021/04/19 11:47:21;;;;;;;6.20;5.53;;;;;;;14.25;60.02;99559.87;4193932;33;32094;-95
2021/04/19 11:49:57;;;;;;;7.57;5.97;;;;;;;14.15;56.71;99564.94;4201988;33;33828;-96
2021/04/19 11:52:44;;;;;;;7.72;6.40;;;;;;;14.85;55.94;99566.91;4282858;28;34713;-96
2021/04/19 11:55:57;;;;;;;7.62;6.10;;;;;;;14.07;56.86;99565.16;4186633;34;34033;-96
2021/04/19 11:58:31;;;;;;;6.80;6.03;;;;;;;13.78;57.21;99567.34;4180632;34;33792;-96
2021/04/19 12:01:19;;;;;;;7.00;6.15;;;;;;;14.33;56.08;99556.09;4158355;34;33855;-96
2021/04/19 12:04:14;;;;;;;9.55;7.03;;;;;;;14.24;56.47;99560.94;4168672;34;32551;-96
2021/04/19 12:06:48;;;;;;;8.82;7.25;;;;;;;13.86;57.86;99550.84;4184769;34;32759;-96
2021/04/19 12:09:33;;;;;;;8.25;6.80;;;;;;;13.95;57.81;99556.84;4163843;34;34505;-96
2021/04/19 12:26:34;;;;;;;7.70;6.90;;;;;;;13.93;57.25;99542.66;4965060;28;20046;31
2021/04/19 12:37:13;;;;;;;16.70;13.00;;;;;;;14.47;58.11;99541.34;4362241;28;20116;-96
2021/04/19 12:39:52;;;;;;;16.67;12.00;;;;;;;14.77;56.80;99543.50;4223893;33;32807;-96
2021/04/19 12:42:43;;;;;;;10.52;8.40;;;;;;;14.63;55.37;99540.03;4286969;28;34405;-96
2021/04/19 12:45:35;;;;;;;10.02;8.05;;;;;;;14.50;55.23;99539.25;4233904;28;35719;31
2021/04/19 12:48:54;;;;;;;9.60;7.70;;;;;;;14.39;55.59;99540.78;4303736;28;35182;31
2021/04/19 12:51:51;;;;;;;11.95;9.30;;;;;;;14.40;54.26;99537.84;4277439;28;31460;-96
2021/04/19 12:58:21;;;;;;;15.15;11.70;;;;;;;14.39;55.44;99528.03;2545348;28;36564;-96
2021/04/19 13:01:04;;;;;;;30.25;19.83;;;;;;;14.45;56.18;99534.47;4210815;28;33940;-96
2021/04/19 13:03:59;;;;;;;18.35;14.00;;;;;;;14.36;55.89;99531.19;4144772;34;34222;-93
2021/04/19 13:06:34;;;;;;;15.97;12.52;;;;;;;14.61;56.63;99539.44;4208425;28;34301;-96
2021/04/19 13:09:15;;;;;;;15.95;11.57;;;;;;;14.41;54.32;99534.06;4149003;34;32275;-96
2021/04/19 13:12:26;;;;;;;14.63;12.75;;;;;;;13.99;54.52;99530.09;4161679;29;33649;-95
2021/04/19 13:15:20;;;;;;;12.95;10.98;;;;;;;13.30;55.97;99535.03;4423744;29;34183;-96
2021/04/19 13:18:38;;;;;;;;;;;;;;;13.98;55.58;99534.69;4208143;29;20084;-86
2021/04/19 13:21:11;;;;;;;16.00;11.20;;;;;;;13.82;55.95;99529.72;4146297;34;34780;-86
2021/04/19 13:23:43;;;;;;;15.80;10.98;;;;;;;13.18;56.59;99532.94;4145884;34;34776;-85
2021/04/19 13:26:16;;;;;;;12.88;9.85;;;;;;;13.54;55.93;99534.38;4146005;34;33722;-86
2021/04/19 13:28:48;;;;;;;14.55;11.95;;;;;;;13.01;57.27;99534.44;4144511;34;34304;-86